sensor_id;sensor_type;location;lat;lon;timestamp;pressure;altitude;pressure_sealevel;temperature;humidity
77799;BME280;66989;50.426;15.352;2023-02-24T00:01:59;97626.13;;;6.11;97.08
77799;BME280;66989;50.426;15.352;2023-02-24T00:04:38;97623.91;;;6.05;97.69
77799;BME280;66989;50.426;15.352;2023-02-24T00:07:04;97640.66;;;6.02;98.32
77799;BME280;66989;50.426;15.352;2023-02-24T00:09:30;97631.25;;;6.00;98.33
77799;BME280;66989;50.426;15.352;2023-02-24T00:14:24;97624.72;;;5.92;98.27
77799;BME280;66989;50.426;15.352;2023-02-24T00:16:52;97628.28;;;5.91;98.43
77799;BME280;66989;50.426;15.352;2023-02-24T00:19:21;97630.81;;;5.93;98.79
77799;BME280;66989;50.426;15.352;2023-02-24T00:21:48;97622.09;;;5.92;98.92
77799;BME280;66989;50.426;15.352;2023-02-24T00:24:13;97616.88;;;5.92;98.88
77799;BME280;66989;50.426;15.352;2023-02-24T00:26:39;97617.81;;;5.91;99.06
77799;BME280;66989;50.426;15.352;2023-02-24T00:29:09;97624.72;;;5.92;98.76
77799;BME280;66989;50.426;15.352;2023-02-24T00:31:35;97619.50;;;5.92;98.91
77799;BME280;66989;50.426;15.352;2023-02-24T00:34:04;97608.19;;;5.92;98.67
77799;BME280;66989;50.426;15.352;2023-02-24T00:36:30;97615.97;;;5.94;98.93
77799;BME280;66989;50.426;15.352;2023-02-24T00:39:05;97593.31;;;5.92;98.84
77799;BME280;66989;50.426;15.352;2023-02-24T00:41:35;97595.03;;;5.94;99.17
77799;BME280;66989;50.426;15.352;2023-02-24T00:44:04;97594.19;;;5.93;98.55
77799;BME280;66989;50.426;15.352;2023-02-24T00:46:39;97589.78;;;5.94;98.89
77799;BME280;66989;50.426;15.352;2023-02-24T00:49:09;97585.47;;;5.92;99.10
77799;BME280;66989;50.426;15.352;2023-02-24T00:51:39;97582.25;;;5.89;99.06
77799;BME280;66989;50.426;15.352;2023-02-24T00:54:05;97577.97;;;5.88;99.38
77799;BME280;66989;50.426;15.352;2023-02-24T00:56:31;97584.97;;;5.87;99.37
77799;BME280;66989;50.426;15.352;2023-02-24T00:58:58;97588.44;;;5.88;99.87
77799;BME280;66989;50.426;15.352;2023-02-24T01:01:25;97585.81;;;5.88;99.74
77799;BME280;66989;50.426;15.352;2023-02-24T01:03:52;97585.59;;;5.91;99.84
77799;BME280;66989;50.426;15.352;2023-02-24T01:06:22;97568.34;;;5.88;99.66
77799;BME280;66989;50.426;15.352;2023-02-24T01:08:50;97569.78;;;5.92;100.00
77799;BME280;66989;50.426;15.352;2023-02-24T01:11:17;97568.03;;;5.93;99.93
77799;BME280;66989;50.426;15.352;2023-02-24T01:14:13;97573.34;;;5.91;99.69
77799;BME280;66989;50.426;15.352;2023-02-24T01:16:41;97572.41;;;5.92;100.00
77799;BME280;66989;50.426;15.352;2023-02-24T01:19:08;97562.69;;;5.95;100.00
77799;BME280;66989;50.426;15.352;2023-02-24T01:21:34;97559.00;;;5.97;100.00
77799;BME280;66989;50.426;15.352;2023-02-24T01:24:00;97563.41;;;5.97;100.00
77799;BME280;66989;50.426;15.352;2023-02-24T01:26:25;97552.94;;;5.97;99.87
77799;BME280;66989;50.426;15.352;2023-02-24T01:28:52;97551.06;;;5.99;100.00
77799;BME280;66989;50.426;15.352;2023-02-24T01:31:18;97547.72;;;5.97;100.00
77799;BME280;66989;50.426;15.352;2023-02-24T01:33:48;97536.28;;;5.98;100.00
77799;BME280;66989;50.426;15.352;2023-02-24T01:36:16;97532.00;;;5.97;100.00
77799;BME280;66989;50.426;15.352;2023-02-24T01:38:43;97532.84;;;5.97;100.00
77799;BME280;66989;50.426;15.352;2023-02-24T01:41:14;97523.44;;;5.95;99.91
77799;BME280;66989;50.426;15.352;2023-02-24T01:46:47;97522.69;;;5.92;99.99
77799;BME280;66989;50.426;15.352;2023-02-24T01:51:56;97519.25;;;5.92;99.55
77799;BME280;66989;50.426;15.352;2023-02-24T01:54:25;97512.13;;;5.94;99.88
77799;BME280;66989;50.426;15.352;2023-02-24T01:56:52;97504.28;;;5.94;99.91
77799;BME280;66989;50.426;15.352;2023-02-24T01:59:19;97509.41;;;5.96;100.00
77799;BME280;66989;50.426;15.352;2023-02-24T02:01:46;97506.06;;;5.94;100.00
77799;BME280;66989;50.426;15.352;2023-02-24T02:04:26;97509.59;;;5.92;100.00
77799;BME280;66989;50.426;15.352;2023-02-24T02:06:53;97494.03;;;5.91;99.89
77799;BME280;66989;50.426;15.352;2023-02-24T02:09:19;97494.16;;;5.89;100.00
77799;BME280;66989;50.426;15.352;2023-02-24T02:11:44;97501.88;;;5.91;100.00
77799;BME280;66989;50.426;15.352;2023-02-24T02:14:14;97494.03;;;5.91;100.00
77799;BME280;66989;50.426;15.352;2023-02-24T02:24:49;97478.22;;;5.92;100.00
77799;BME280;66989;50.426;15.352;2023-02-24T02:32:49;97488.91;;;5.89;100.00
77799;BME280;66989;50.426;15.352;2023-02-24T02:35:47;97484.50;;;5.90;100.00
77799;BME280;66989;50.426;15.352;2023-02-24T02:38:28;97485.66;;;5.86;100.00
77799;BME280;66989;50.426;15.352;2023-02-24T02:44:06;97477.09;;;5.84;100.00
77799;BME280;66989;50.426;15.352;2023-02-24T02:46:41;97473.63;;;5.83;100.00
77799;BME280;66989;50.426;15.352;2023-02-24T02:49:24;97471.03;;;5.83;100.00
77799;BME280;66989;50.426;15.352;2023-02-24T02:51:59;97472.88;;;5.81;100.00
77799;BME280;66989;50.426;15.352;2023-02-24T02:54:50;97473.13;;;5.78;100.00
77799;BME280;66989;50.426;15.352;2023-02-24T02:57:22;97466.19;;;5.77;100.00
77799;BME280;66989;50.426;15.352;2023-02-24T02:59:54;97466.94;;;5.79;100.00
77799;BME280;66989;50.426;15.352;2023-02-24T03:02:25;97457.19;;;5.81;100.00
77799;BME280;66989;50.426;15.352;2023-02-24T03:05:01;97449.34;;;5.81;100.00
77799;BME280;66989;50.426;15.352;2023-02-24T03:07:32;97449.16;;;5.84;100.00
77799;BME280;66989;50.426;15.352;2023-02-24T03:10:02;97444.56;;;5.88;100.00
77799;BME280;66989;50.426;15.352;2023-02-24T03:12:34;97442.53;;;5.91;100.00
77799;BME280;66989;50.426;15.352;2023-02-24T03:15:05;97435.63;;;5.90;100.00
77799;BME280;66989;50.426;15.352;2023-02-24T03:17:38;97442.66;;;5.90;100.00
77799;BME280;66989;50.426;15.352;2023-02-24T03:20:29;97435.75;;;5.89;100.00
77799;BME280;66989;50.426;15.352;2023-02-24T03:23:12;97444.63;;;5.86;100.00
77799;BME280;66989;50.426;15.352;2023-02-24T03:31:58;97431.25;;;5.91;100.00
77799;BME280;66989;50.426;15.352;2023-02-24T03:36:52;97424.03;;;5.95;100.00
77799;BME280;66989;50.426;15.352;2023-02-24T03:39:18;97414.50;;;5.94;100.00
77799;BME280;66989;50.426;15.352;2023-02-24T03:41:59;97420.88;;;5.89;100.00
77799;BME280;66989;50.426;15.352;2023-02-24T03:44:26;97421.72;;;5.90;100.00
77799;BME280;66989;50.426;15.352;2023-02-24T03:46:53;97427.16;;;5.87;100.00
77799;BME280;66989;50.426;15.352;2023-02-24T03:49:19;97423.72;;;5.86;100.00
77799;BME280;66989;50.426;15.352;2023-02-24T03:57:31;97421.09;;;5.86;100.00
77799;BME280;66989;50.426;15.352;2023-02-24T04:00:13;97424.47;;;5.88;100.00
77799;BME280;66989;50.426;15.352;2023-02-24T04:05:40;97414.00;;;5.88;100.00
77799;BME280;66989;50.426;15.352;2023-02-24T04:08:12;97406.97;;;5.89;100.00
77799;BME280;66989;50.426;15.352;2023-02-24T04:10:59;97409.47;;;5.90;100.00
77799;BME280;66989;50.426;15.352;2023-02-24T04:13:37;97407.69;;;5.91;100.00
77799;BME280;66989;50.426;15.352;2023-02-24T04:16:34;97400.59;;;5.93;100.00
77799;BME280;66989;50.426;15.352;2023-02-24T04:19:07;97403.91;;;5.95;100.00
77799;BME280;66989;50.426;15.352;2023-02-24T04:21:35;97405.69;;;5.95;100.00
77799;BME280;66989;50.426;15.352;2023-02-24T04:24:04;97408.31;;;5.95;100.00
77799;BME280;66989;50.426;15.352;2023-02-24T04:26:32;97397.84;;;5.95;100.00
77799;BME280;66989;50.426;15.352;2023-02-24T04:28:58;97390.97;;;5.94;100.00
77799;BME280;66989;50.426;15.352;2023-02-24T04:31:26;97389.88;;;5.96;100.00
77799;BME280;66989;50.426;15.352;2023-02-24T04:33:52;97383.00;;;5.95;100.00
77799;BME280;66989;50.426;15.352;2023-02-24T04:36:19;97383.81;;;5.96;100.00
77799;BME280;66989;50.426;15.352;2023-02-24T04:38:45;97378.59;;;5.96;100.00
77799;BME280;66989;50.426;15.352;2023-02-24T04:41:12;97367.50;;;5.92;100.00
77799;BME280;66989;50.426;15.352;2023-02-24T04:43:45;97374.50;;;5.91;100.00
77799;BME280;66989;50.426;15.352;2023-02-24T04:46:13;97365.00;;;5.90;100.00
77799;BME280;66989;50.426;15.352;2023-02-24T04:48:38;97365.84;;;5.91;100.00
77799;BME280;66989;50.426;15.352;2023-02-24T04:51:04;97362.28;;;5.92;100.00
77799;BME280;66989;50.426;15.352;2023-02-24T04:53:30;97366.66;;;5.91;100.00
77799;BME280;66989;50.426;15.352;2023-02-24T04:55:56;97359.06;;;5.88;100.00
77799;BME280;66989;50.426;15.352;2023-02-24T04:58:24;97358.94;;;5.90;100.00
77799;BME280;66989;50.426;15.352;2023-02-24T05:00:53;97361.44;;;5.91;100.00
77799;BME280;66989;50.426;15.352;2023-02-24T05:03:23;97359.78;;;5.90;100.00
77799;BME280;66989;50.426;15.352;2023-02-24T05:05:57;97359.78;;;5.90;100.00
77799;BME280;66989;50.426;15.352;2023-02-24T05:08:28;97358.94;;;5.90;100.00
77799;BME280;66989;50.426;15.352;2023-02-24T05:10:54;97356.19;;;5.91;100.00
77799;BME280;66989;50.426;15.352;2023-02-24T05:13:26;97350.97;;;5.91;100.00
77799;BME280;66989;50.426;15.352;2023-02-24T05:15:54;97353.59;;;5.91;100.00
77799;BME280;66989;50.426;15.352;2023-02-24T05:18:20;97350.13;;;5.91;100.00
77799;BME280;66989;50.426;15.352;2023-02-24T05:20:50;97345.75;;;5.91;100.00
77799;BME280;66989;50.426;15.352;2023-02-24T05:23:40;97344.91;;;5.91;100.00
77799;BME280;66989;50.426;15.352;2023-02-24T05:26:10;97344.91;;;5.91;100.00
77799;BME280;66989;50.426;15.352;2023-02-24T05:28:39;97341.56;;;5.89;100.00
77799;BME280;66989;50.426;15.352;2023-02-24T05:31:15;97325.88;;;5.89;100.00
77799;BME280;66989;50.426;15.352;2023-02-24T05:33:43;97328.50;;;5.89;100.00
77799;BME280;66989;50.426;15.352;2023-02-24T05:36:17;97338.84;;;5.90;100.00
77799;BME280;66989;50.426;15.352;2023-02-24T05:38:44;97336.34;;;5.89;100.00
77799;BME280;66989;50.426;15.352;2023-02-24T05:41:17;97331.13;;;5.89;100.00
77799;BME280;66989;50.426;15.352;2023-02-24T05:43:53;97318.97;;;5.88;100.00
77799;BME280;66989;50.426;15.352;2023-02-24T05:46:23;97319.81;;;5.88;100.00
77799;BME280;66989;50.426;15.352;2023-02-24T05:48:56;97312.06;;;5.87;100.00
77799;BME280;66989;50.426;15.352;2023-02-24T05:51:27;97313.84;;;5.86;100.00
77799;BME280;66989;50.426;15.352;2023-02-24T05:53:59;97329.44;;;5.88;100.00
77799;BME280;66989;50.426;15.352;2023-02-24T05:56:28;97330.28;;;5.88;100.00
77799;BME280;66989;50.426;15.352;2023-02-24T05:58:54;97325.03;;;5.88;100.00
77799;BME280;66989;50.426;15.352;2023-02-24T06:01:30;97323.16;;;5.90;100.00
77799;BME280;66989;50.426;15.352;2023-02-24T06:03:59;97325.63;;;5.92;100.00
77799;BME280;66989;50.426;15.352;2023-02-24T06:06:39;97329.94;;;5.93;100.00
77799;BME280;66989;50.426;15.352;2023-02-24T06:09:14;97329.00;;;5.94;100.00
77799;BME280;66989;50.426;15.352;2023-02-24T06:11:41;97330.66;;;5.95;100.00
77799;BME280;66989;50.426;15.352;2023-02-24T06:14:08;97326.16;;;5.97;100.00
77799;BME280;66989;50.426;15.352;2023-02-24T06:16:39;97332.13;;;5.99;100.00
77799;BME280;66989;50.426;15.352;2023-02-24T06:19:05;97329.38;;;6.01;100.00
77799;BME280;66989;50.426;15.352;2023-02-24T06:21:33;97331.06;;;6.02;100.00
77799;BME280;66989;50.426;15.352;2023-02-24T06:24:00;97338.91;;;6.02;100.00
77799;BME280;66989;50.426;15.352;2023-02-24T06:26:26;97329.38;;;6.01;100.00
77799;BME280;66989;50.426;15.352;2023-02-24T06:28:58;97319.63;;;6.03;100.00
77799;BME280;66989;50.426;15.352;2023-02-24T06:31:23;97318.59;;;6.05;100.00
77799;BME280;66989;50.426;15.352;2023-02-24T06:33:49;97315.13;;;6.05;100.00
77799;BME280;66989;50.426;15.352;2023-02-24T06:36:17;97315.13;;;6.05;100.00
77799;BME280;66989;50.426;15.352;2023-02-24T06:38:42;97309.06;;;6.04;100.00
77799;BME280;66989;50.426;15.352;2023-02-24T06:41:08;97311.56;;;6.06;100.00
77799;BME280;66989;50.426;15.352;2023-02-24T06:43:38;97318.47;;;6.07;100.00
77799;BME280;66989;50.426;15.352;2023-02-24T06:46:05;97314.19;;;6.06;100.00
77799;BME280;66989;50.426;15.352;2023-02-24T06:48:31;97314.91;;;6.08;100.00
77799;BME280;66989;50.426;15.352;2023-02-24T06:51:02;97314.69;;;6.11;100.00
77799;BME280;66989;50.426;15.352;2023-02-24T06:53:29;97299.59;;;6.14;100.00
77799;BME280;66989;50.426;15.352;2023-02-24T06:55:56;97297.38;;;6.21;100.00
77799;BME280;66989;50.426;15.352;2023-02-24T06:58:21;97302.88;;;6.29;100.00
77799;BME280;66989;50.426;15.352;2023-02-24T07:00:48;97307.53;;;6.37;100.00
77799;BME280;66989;50.426;15.352;2023-02-24T07:03:27;97316.00;;;6.40;100.00
77799;BME280;66989;50.426;15.352;2023-02-24T07:06:12;97303.63;;;6.42;100.00
77799;BME280;66989;50.426;15.352;2023-02-24T07:08:51;97301.50;;;6.48;100.00
77799;BME280;66989;50.426;15.352;2023-02-24T07:11:17;97298.66;;;6.51;100.00
77799;BME280;66989;50.426;15.352;2023-02-24T07:13:43;97293.69;;;6.59;100.00
77799;BME280;66989;50.426;15.352;2023-02-24T07:16:08;97287.97;;;6.65;100.00
77799;BME280;66989;50.426;15.352;2023-02-24T07:18:37;97282.03;;;6.74;100.00
77799;BME280;66989;50.426;15.352;2023-02-24T07:21:06;97288.25;;;6.84;100.00
77799;BME280;66989;50.426;15.352;2023-02-24T07:23:41;97278.75;;;6.94;99.70
77799;BME280;66989;50.426;15.352;2023-02-24T07:26:18;97280.66;;;7.04;99.51
77799;BME280;66989;50.426;15.352;2023-02-24T07:28:45;97279.22;;;7.11;99.06
77799;BME280;66989;50.426;15.352;2023-02-24T07:31:14;97275.41;;;7.15;98.79
77799;BME280;66989;50.426;15.352;2023-02-24T07:33:41;97271.59;;;7.19;98.53
77799;BME280;66989;50.426;15.352;2023-02-24T07:36:15;97267.53;;;7.26;98.52
77799;BME280;66989;50.426;15.352;2023-02-24T07:38:43;97267.31;;;7.29;98.30
77799;BME280;66989;50.426;15.352;2023-02-24T07:41:12;97260.16;;;7.31;97.80
77799;BME280;66989;50.426;15.352;2023-02-24T07:43:40;97260.63;;;7.36;97.86
77799;BME280;66989;50.426;15.352;2023-02-24T07:46:12;97250.59;;;7.41;98.01
77799;BME280;66989;50.426;15.352;2023-02-24T07:48:39;97246.91;;;7.44;97.89
77799;BME280;66989;50.426;15.352;2023-02-24T07:51:07;97250.72;;;7.51;97.48
77799;BME280;66989;50.426;15.352;2023-02-24T07:53:34;97249.38;;;7.57;97.28
77799;BME280;66989;50.426;15.352;2023-02-24T07:55:59;97250.72;;;7.51;97.16
77799;BME280;66989;50.426;15.352;2023-02-24T07:58:25;97249.66;;;7.42;97.19
77799;BME280;66989;50.426;15.352;2023-02-24T08:00:52;97249.19;;;7.26;96.87
77799;BME280;66989;50.426;15.352;2023-02-24T08:03:27;97246.34;;;7.18;97.55
77799;BME280;66989;50.426;15.352;2023-02-24T08:05:55;97239.34;;;7.07;98.37
77799;BME280;66989;50.426;15.352;2023-02-24T08:08:24;97249.06;;;7.05;98.30
77799;BME280;66989;50.426;15.352;2023-02-24T08:10:50;97243.34;;;7.11;98.56
77799;BME280;66989;50.426;15.352;2023-02-24T08:13:28;97234.06;;;7.18;98.50
77799;BME280;66989;50.426;15.352;2023-02-24T08:16:04;97232.63;;;7.26;97.85
77799;BME280;66989;50.426;15.352;2023-02-24T08:18:29;97230.72;;;7.39;97.98
77799;BME280;66989;50.426;15.352;2023-02-24T08:21:01;97226.41;;;7.49;97.30
77799;BME280;66989;50.426;15.352;2023-02-24T08:23:28;97222.47;;;7.55;97.03
77799;BME280;66989;50.426;15.352;2023-02-24T08:26:01;97216.03;;;7.59;96.22
77799;BME280;66989;50.426;15.352;2023-02-24T08:28:26;97222.31;;;7.56;96.50
77799;BME280;66989;50.426;15.352;2023-02-24T08:30:52;97218.53;;;7.49;96.17
77799;BME280;66989;50.426;15.352;2023-02-24T08:33:21;97212.00;;;7.43;96.29
77799;BME280;66989;50.426;15.352;2023-02-24T08:35:51;97221.56;;;7.33;95.98
77799;BME280;66989;50.426;15.352;2023-02-24T08:38:22;97216.53;;;7.30;96.17
77799;BME280;66989;50.426;15.352;2023-02-24T08:40:50;97212.25;;;7.29;96.40
77799;BME280;66989;50.426;15.352;2023-02-24T08:43:29;97213.44;;;7.25;96.44
77799;BME280;66989;50.426;15.352;2023-02-24T08:46:15;97212.38;;;7.28;96.36
77799;BME280;66989;50.426;15.352;2023-02-24T08:48:58;97193.63;;;7.32;95.85
77799;BME280;66989;50.426;15.352;2023-02-24T08:53:55;97188.97;;;7.58;96.22
77799;BME280;66989;50.426;15.352;2023-02-24T08:56:27;97186.84;;;7.73;95.45
77799;BME280;66989;50.426;15.352;2023-02-24T08:58:54;97180.03;;;7.82;94.55
77799;BME280;66989;50.426;15.352;2023-02-24T09:01:27;97179.66;;;7.86;93.75
77799;BME280;66989;50.426;15.352;2023-02-24T09:03:59;97178.00;;;7.85;92.99
77799;BME280;66989;50.426;15.352;2023-02-24T09:09:08;97175.63;;;7.82;92.51
77799;BME280;66989;50.426;15.352;2023-02-24T09:11:58;97179.81;;;7.73;93.13
77799;BME280;66989;50.426;15.352;2023-02-24T09:14:26;97184.19;;;7.52;93.72
77799;BME280;66989;50.426;15.352;2023-02-24T09:16:53;97186.72;;;7.42;93.74
77799;BME280;66989;50.426;15.352;2023-02-24T09:19:45;97175.56;;;7.29;95.24
77799;BME280;66989;50.426;15.352;2023-02-24T09:22:14;97181.97;;;7.25;95.99
77799;BME280;66989;50.426;15.352;2023-02-24T09:24:56;97183.66;;;7.26;95.98
77799;BME280;66989;50.426;15.352;2023-02-24T09:27:43;97171.25;;;7.28;96.30
77799;BME280;66989;50.426;15.352;2023-02-24T09:30:09;97173.63;;;7.31;95.97
77799;BME280;66989;50.426;15.352;2023-02-24T09:32:55;97169.69;;;7.37;95.62
77799;BME280;66989;50.426;15.352;2023-02-24T09:35:26;97161.06;;;7.46;95.50
77799;BME280;66989;50.426;15.352;2023-02-24T09:37:58;97149.59;;;7.58;94.85
77799;BME280;66989;50.426;15.352;2023-02-24T09:40:31;97139.16;;;7.79;94.51
77799;BME280;66989;50.426;15.352;2023-02-24T09:43:26;97137.19;;;7.92;93.10
77799;BME280;66989;50.426;15.352;2023-02-24T09:46:05;97144.00;;;7.95;92.26
77799;BME280;66989;50.426;15.352;2023-02-24T09:48:46;97135.56;;;7.80;92.08
77799;BME280;66989;50.426;15.352;2023-02-24T09:51:16;97144.13;;;7.82;92.35
77799;BME280;66989;50.426;15.352;2023-02-24T09:53:47;97143.22;;;7.72;92.36
77799;BME280;66989;50.426;15.352;2023-02-24T09:56:27;97147.53;;;7.62;91.51
77799;BME280;66989;50.426;15.352;2023-02-24T09:59:24;97155.22;;;7.42;92.36
77799;BME280;66989;50.426;15.352;2023-02-24T10:02:01;97141.47;;;7.29;92.28
77799;BME280;66989;50.426;15.352;2023-02-24T10:07:14;97142.09;;;7.10;91.92
77799;BME280;66989;50.426;15.352;2023-02-24T10:09:51;97138.78;;;7.08;92.35
77799;BME280;66989;50.426;15.352;2023-02-24T10:12:30;97133.88;;;7.15;93.54
77799;BME280;66989;50.426;15.352;2023-02-24T10:15:05;97122.97;;;7.31;93.06
77799;BME280;66989;50.426;15.352;2023-02-24T10:18:06;97116.28;;;7.70;92.58
77799;BME280;66989;50.426;15.352;2023-02-24T10:20:52;97102.53;;;8.19;90.62
77799;BME280;66989;50.426;15.352;2023-02-24T10:26:32;97115.59;;;8.61;87.46
77799;BME280;66989;50.426;15.352;2023-02-24T10:31:50;97091.84;;;8.63;85.73
77799;BME280;66989;50.426;15.352;2023-02-24T10:34:23;97090.53;;;8.97;85.21
77799;BME280;66989;50.426;15.352;2023-02-24T10:37:13;97085.47;;;9.25;84.40
77799;BME280;66989;50.426;15.352;2023-02-24T10:43:14;97048.53;;;11.68;74.18
77799;BME280;66989;50.426;15.352;2023-02-24T10:46:16;97059.00;;;11.59;71.90
77799;BME280;66989;50.426;15.352;2023-02-24T10:49:01;97055.75;;;10.94;75.09
77799;BME280;66989;50.426;15.352;2023-02-24T10:51:36;97065.78;;;10.53;75.60
77799;BME280;66989;50.426;15.352;2023-02-24T10:54:27;97050.38;;;10.12;nan
77799;BME280;66989;50.426;15.352;2023-02-24T10:57:10;97051.00;;;9.76;79.38
77799;BME280;66989;50.426;15.352;2023-02-24T10:59:55;97043.53;;;9.72;80.54
77799;BME280;66989;50.426;15.352;2023-02-24T11:02:34;97036.84;;;9.77;80.09
77799;BME280;66989;50.426;15.352;2023-02-24T11:05:21;97025.38;;;10.16;78.26
77799;BME280;66989;50.426;15.352;2023-02-24T11:08:13;97016.19;;;10.94;75.36
77799;BME280;66989;50.426;15.352;2023-02-24T11:11:23;96999.81;;;11.88;71.10
77799;BME280;66989;50.426;15.352;2023-02-24T11:13:58;96994.81;;;12.37;68.93
77799;BME280;66989;50.426;15.352;2023-02-24T11:22:13;96973.53;;;14.59;60.71
77799;BME280;66989;50.426;15.352;2023-02-24T11:24:39;96958.63;;;14.10;61.30
77799;BME280;66989;50.426;15.352;2023-02-24T11:27:05;96956.00;;;13.04;64.28
77799;BME280;66989;50.426;15.352;2023-02-24T11:32:55;96957.53;;;12.14;67.68
77799;BME280;66989;50.426;15.352;2023-02-24T11:35:37;96956.31;;;11.74;68.61
77799;BME280;66989;50.426;15.352;2023-02-24T11:38:28;96962.13;;;11.34;71.06
77799;BME280;66989;50.426;15.352;2023-02-24T11:41:24;96955.13;;;10.89;72.33
77799;BME280;66989;50.426;15.352;2023-02-24T11:44:12;96944.44;;;10.45;74.87
77799;BME280;66989;50.426;15.352;2023-02-24T11:46:46;96951.75;;;9.96;76.19
77799;BME280;66989;50.426;15.352;2023-02-24T11:49:25;96944.56;;;9.79;78.03
77799;BME280;66989;50.426;15.352;2023-02-24T11:51:51;96937.38;;;9.81;78.03
77799;BME280;66989;50.426;15.352;2023-02-24T11:54:18;96939.88;;;9.73;78.19
77799;BME280;66989;50.426;15.352;2023-02-24T11:56:55;96931.34;;;9.61;78.47
77799;BME280;66989;50.426;15.352;2023-02-24T11:59:40;96928.44;;;9.54;79.33
77799;BME280;66989;50.426;15.352;2023-02-24T12:07:24;96918.56;;;9.19;81.15
77799;BME280;66989;50.426;15.352;2023-02-24T12:09:58;96917.59;;;9.11;81.77
77799;BME280;66989;50.426;15.352;2023-02-24T12:12:46;96917.31;;;9.04;82.29
77799;BME280;66989;50.426;15.352;2023-02-24T12:15:30;96914.53;;;8.76;80.78
77799;BME280;66989;50.426;15.352;2023-02-24T12:20:47;96901.13;;;8.89;80.83
77799;BME280;66989;50.426;15.352;2023-02-24T12:23:19;96889.41;;;9.87;78.16
77799;BME280;66989;50.426;15.352;2023-02-24T12:26:00;96873.25;;;12.53;69.30
77799;BME280;66989;50.426;15.352;2023-02-24T12:28:48;96843.81;;;14.87;60.49
77799;BME280;66989;50.426;15.352;2023-02-24T12:42:43;96835.41;;;11.52;65.99
77799;BME280;66989;50.426;15.352;2023-02-24T12:48:48;96834.44;;;10.83;68.80
77799;BME280;66989;50.426;15.352;2023-02-24T12:51:23;96835.31;;;10.20;71.62
77799;BME280;66989;50.426;15.352;2023-02-24T12:54:21;96841.25;;;9.77;73.26
77799;BME280;66989;50.426;15.352;2023-02-24T12:59:24;96863.81;;;8.47;81.36
77799;BME280;66989;50.426;15.352;2023-02-24T13:04:41;96842.47;;;7.71;84.46
77799;BME280;66989;50.426;15.352;2023-02-24T13:10:11;96822.97;;;8.82;79.24
77799;BME280;66989;50.426;15.352;2023-02-24T13:12:48;96797.97;;;10.07;76.67
77799;BME280;66989;50.426;15.352;2023-02-24T13:15:23;96787.59;;;12.22;67.43
77799;BME280;66989;50.426;15.352;2023-02-24T13:17:51;96781.56;;;13.58;63.01
77799;BME280;66989;50.426;15.352;2023-02-24T13:20:33;96772.97;;;14.72;57.79
77799;BME280;66989;50.426;15.352;2023-02-24T13:23:00;96772.25;;;14.78;57.61
77799;BME280;66989;50.426;15.352;2023-02-24T13:25:36;96770.38;;;14.64;57.04
77799;BME280;66989;50.426;15.352;2023-02-24T13:28:23;96777.41;;;13.08;61.33
77799;BME280;66989;50.426;15.352;2023-02-24T13:30:58;96774.63;;;12.77;63.25
77799;BME280;66989;50.426;15.352;2023-02-24T13:33:29;96772.97;;;11.85;65.95
77799;BME280;66989;50.426;15.352;2023-02-24T13:36:16;96770.75;;;11.22;68.46
77799;BME280;66989;50.426;15.352;2023-02-24T13:38:48;96775.19;;;10.69;71.06
77799;BME280;66989;50.426;15.352;2023-02-24T13:43:57;96760.94;;;10.80;72.13
77799;BME280;66989;50.426;15.352;2023-02-24T13:46:44;96760.47;;;11.10;69.99
77799;BME280;66989;50.426;15.352;2023-02-24T13:49:38;96758.13;;;11.07;69.53
77799;BME280;66989;50.426;15.352;2023-02-24T13:58:00;96743.28;;;10.54;72.96
77799;BME280;66989;50.426;15.352;2023-02-24T14:01:02;96744.94;;;10.81;71.82
77799;BME280;66989;50.426;15.352;2023-02-24T14:03:30;96738.28;;;10.95;71.46
77799;BME280;66989;50.426;15.352;2023-02-24T14:05:56;96725.13;;;11.03;71.01
77799;BME280;66989;50.426;15.352;2023-02-24T14:08:44;96727.38;;;10.90;70.90
77799;BME280;66989;50.426;15.352;2023-02-24T14:11:14;96728.31;;;10.63;71.82
77799;BME280;66989;50.426;15.352;2023-02-24T14:13:48;96724.91;;;10.45;72.61
77799;BME280;66989;50.426;15.352;2023-02-24T14:16:19;96722.19;;;10.19;72.33
77799;BME280;66989;50.426;15.352;2023-02-24T14:19:00;96722.78;;;9.95;74.24
77799;BME280;66989;50.426;15.352;2023-02-24T14:21:28;96725.53;;;9.57;75.58
77799;BME280;66989;50.426;15.352;2023-02-24T14:23:59;96710.66;;;9.21;77.21
77799;BME280;66989;50.426;15.352;2023-02-24T14:26:27;96701.63;;;8.96;78.38
77799;BME280;66989;50.426;15.352;2023-02-24T14:28:56;96698.31;;;8.94;79.04
77799;BME280;66989;50.426;15.352;2023-02-24T14:31:23;96692.50;;;8.90;77.77
77799;BME280;66989;50.426;15.352;2023-02-24T14:34:01;96689.41;;;9.04;78.21
77799;BME280;66989;50.426;15.352;2023-02-24T14:36:32;96693.53;;;9.07;78.93
77799;BME280;66989;50.426;15.352;2023-02-24T14:41:39;96682.91;;;9.09;77.22
77799;BME280;66989;50.426;15.352;2023-02-24T14:46:55;96678.19;;;9.02;77.68
77799;BME280;66989;50.426;15.352;2023-02-24T14:49:31;96677.81;;;8.97;78.07
77799;BME280;66989;50.426;15.352;2023-02-24T14:52:00;96664.00;;;8.95;78.99
77799;BME280;66989;50.426;15.352;2023-02-24T14:54:44;96662.44;;;9.02;77.78
77799;BME280;66989;50.426;15.352;2023-02-24T14:57:18;96658.31;;;9.00;77.80
77799;BME280;66989;50.426;15.352;2023-02-24T14:59:51;96653.25;;;8.89;77.86
77799;BME280;66989;50.426;15.352;2023-02-24T15:02:24;96643.03;;;8.76;79.36
77799;BME280;66989;50.426;15.352;2023-02-24T15:04:55;96636.19;;;8.65;79.44
77799;BME280;66989;50.426;15.352;2023-02-24T15:07:23;96636.59;;;8.61;78.77
77799;BME280;66989;50.426;15.352;2023-02-24T15:09:51;96640.78;;;8.53;78.72
77799;BME280;66989;50.426;15.352;2023-02-24T15:14:49;96638.81;;;8.18;80.29
77799;BME280;66989;50.426;15.352;2023-02-24T15:17:17;96634.28;;;8.11;80.28
77799;BME280;66989;50.426;15.352;2023-02-24T15:19:43;96629.84;;;8.02;81.28
77799;BME280;66989;50.426;15.352;2023-02-24T15:22:32;96623.53;;;7.94;81.47